createdAt,value
2022-12-05T00:01:54.190Z,42.80
2022-12-05T00:04:26.509Z,31.70
2022-12-05T00:06:58.709Z,29.60
2022-12-05T00:09:31.361Z,28.00
2022-12-05T00:12:03.482Z,37.70
2022-12-05T00:14:35.567Z,29.20
2022-12-05T00:17:07.704Z,32.20
2022-12-05T00:19:40.750Z,30.00
2022-12-05T00:22:12.942Z,25.90
2022-12-05T00:24:44.959Z,33.00
2022-12-05T00:27:17.025Z,28.20
2022-12-05T00:29:49.499Z,29.70
2022-12-05T00:32:21.644Z,28.30
2022-12-05T00:34:53.761Z,32.70
2022-12-05T00:37:26.133Z,25.10
2022-12-05T00:39:58.487Z,28.70
2022-12-05T00:42:30.777Z,25.10
2022-12-05T00:45:03.022Z,32.30
2022-12-05T00:47:37.724Z,27.30
2022-12-05T00:50:11.576Z,24.40
2022-12-05T00:52:43.777Z,24.00
2022-12-05T00:55:15.968Z,22.40
2022-12-05T00:57:48.105Z,24.40
2022-12-05T01:00:22.185Z,24.70
2022-12-05T01:02:54.346Z,23.70
2022-12-05T01:05:26.510Z,22.60
2022-12-05T01:07:58.772Z,21.90
2022-12-05T01:10:31.025Z,20.30
2022-12-05T01:13:03.196Z,24.00
2022-12-05T01:15:39.100Z,20.80
2022-12-05T01:18:11.575Z,23.10
2022-12-05T01:20:44.384Z,23.10
2022-12-05T01:23:17.017Z,28.40
2022-12-05T01:25:51.411Z,23.70
2022-12-05T01:28:23.957Z,21.40
2022-12-05T01:30:56.077Z,24.00
2022-12-05T01:33:28.168Z,21.80
2022-12-05T01:36:00.312Z,28.50
2022-12-05T01:38:32.609Z,24.20
2022-12-05T01:41:07.643Z,25.40
2022-12-05T01:44:01.650Z,28.60
2022-12-05T01:46:36.222Z,28.30
2022-12-05T01:49:12.078Z,26.70
2022-12-05T01:51:47.168Z,22.60
2022-12-05T01:54:20.843Z,23.50
2022-12-05T01:56:58.335Z,43.20
2022-12-05T01:59:35.420Z,28.00
2022-12-05T02:02:08.584Z,49.20
2022-12-05T02:04:47.512Z,28.30
2022-12-05T02:07:20.579Z,45.30
2022-12-05T02:09:53.666Z,28.80
2022-12-05T02:12:26.657Z,48.30
2022-12-05T02:15:13.544Z,52.60
2022-12-05T02:17:54.850Z,47.30
2022-12-05T02:20:39.844Z,38.40
2022-12-05T02:23:30.546Z,32.40
2022-12-05T02:26:40.220Z,23.30
2022-12-05T02:29:33.100Z,19.40
2022-12-05T02:32:12.204Z,23.90
2022-12-05T02:34:54.304Z,23.40
2022-12-05T02:37:33.030Z,41.80
2022-12-05T02:40:12.235Z,23.90
2022-12-05T02:42:52.520Z,18.80
2022-12-05T02:45:29.266Z,27.10
2022-12-05T02:48:02.719Z,32.60
2022-12-05T02:50:38.906Z,20.30
2022-12-05T02:53:14.430Z,20.90
2022-12-05T02:55:47.671Z,34.70
2022-12-05T02:58:24.093Z,27.90
2022-12-05T03:00:59.379Z,26.70
2022-12-05T03:03:34.320Z,35.70
2022-12-05T03:06:13.546Z,37.60
2022-12-05T03:08:50.374Z,24.00
2022-12-05T03:11:22.569Z,32.50
2022-12-05T03:13:57.473Z,24.40
2022-12-05T03:16:35.218Z,21.40
2022-12-05T03:19:13.935Z,24.30
2022-12-05T03:21:53.563Z,23.50
2022-12-05T03:24:25.836Z,42.40
2022-12-05T03:27:08.528Z,20.20
2022-12-05T03:29:47.772Z,54.20
2022-12-05T03:32:25.800Z,44.80
2022-12-05T03:35:09.760Z,27.50
2022-12-05T03:37:49.105Z,23.90
2022-12-05T03:40:28.893Z,22.50
2022-12-05T03:43:10.254Z,20.70
2022-12-05T03:45:49.403Z,25.50
2022-12-05T03:48:31.229Z,31.40
2022-12-05T03:51:06.110Z,42.00
2022-12-05T03:53:43.270Z,28.10
2022-12-05T03:56:21.379Z,23.10
2022-12-05T03:58:58.282Z,25.70
2022-12-05T04:01:32.326Z,19.70
2022-12-05T04:04:09.608Z,25.00
2022-12-05T04:06:46.844Z,29.30
2022-12-05T04:09:25.592Z,32.70
2022-12-05T04:12:02.910Z,27.80
2022-12-05T04:14:40.820Z,30.00
2022-12-05T04:17:19.521Z,41.90
2022-12-05T04:20:15.148Z,27.20
2022-12-05T04:22:47.855Z,42.40
2022-12-05T04:25:36.367Z,50.80
2022-12-05T04:28:22.210Z,41.40
2022-12-05T04:31:04.228Z,50.60
2022-12-05T04:33:43.454Z,44.40
2022-12-05T04:36:21.623Z,32.70
2022-12-05T04:38:56.492Z,21.30
2022-12-05T04:41:32.782Z,20.20
2022-12-05T04:44:09.867Z,21.90
2022-12-05T04:46:45.881Z,24.00
2022-12-05T04:49:22.933Z,23.50
2022-12-05T04:51:58.763Z,20.80
2022-12-05T04:54:33.438Z,21.30
2022-12-05T04:57:14.112Z,18.50
2022-12-05T04:59:46.606Z,19.90
2022-12-05T05:02:25.861Z,23.10
2022-12-05T05:05:02.668Z,21.00
2022-12-05T05:07:43.560Z,22.40
2022-12-05T05:10:20.292Z,46.10
2022-12-05T05:12:52.433Z,25.90
2022-12-05T05:15:24.635Z,25.00
2022-12-05T05:17:56.977Z,22.60
2022-12-05T05:20:29.685Z,25.50
2022-12-05T05:23:01.926Z,32.20
2022-12-05T05:25:34.503Z,23.00
2022-12-05T05:28:07.112Z,27.40
2022-12-05T05:30:39.276Z,28.00
2022-12-05T05:33:11.394Z,27.70
2022-12-05T05:35:43.817Z,35.20
2022-12-05T05:38:15.909Z,44.70
2022-12-05T05:40:48.078Z,32.20
2022-12-05T05:43:20.171Z,55.60
2022-12-05T05:45:52.263Z,96.80
2022-12-05T05:48:24.453Z,43.30
2022-12-05T05:50:56.669Z,59.60
2022-12-05T05:53:28.871Z,45.20
2022-12-05T05:56:05.693Z,51.00
2022-12-05T05:58:38.680Z,43.50
2022-12-05T06:01:12.770Z,38.90
2022-12-05T06:03:45.039Z,26.00
2022-12-05T06:06:17.489Z,28.30
2022-12-05T06:08:50.582Z,32.90
2022-12-05T06:11:26.366Z,51.70
2022-12-05T06:14:02.230Z,157.60
2022-12-05T06:19:05.663Z,51.60
2022-12-05T06:21:37.718Z,40.20
2022-12-05T06:24:10.828Z,61.50
2022-12-05T06:26:43.749Z,43.50
2022-12-05T06:29:15.836Z,73.40
2022-12-05T06:31:48.367Z,38.80
2022-12-05T06:34:20.812Z,72.50
2022-12-05T06:36:52.955Z,47.80
2022-12-05T06:39:25.251Z,43.60
2022-12-05T06:41:57.418Z,25.00
2022-12-05T06:44:29.539Z,21.20
2022-12-05T06:47:01.758Z,43.10
2022-12-05T06:49:37.812Z,40.50
2022-12-05T06:52:10.492Z,40.90
2022-12-05T06:54:42.715Z,41.00
2022-12-05T06:57:15.242Z,41.00
2022-12-05T06:59:47.359Z,71.90
2022-12-05T07:02:19.557Z,84.70
2022-12-05T07:04:51.696Z,67.80
2022-12-05T07:07:23.777Z,78.70
2022-12-05T07:09:56.050Z,77.20
2022-12-05T07:12:28.532Z,85.10
2022-12-05T07:15:00.598Z,108.80
2022-12-05T07:17:36.636Z,94.90
2022-12-05T07:20:12.772Z,56.40
2022-12-05T07:22:45.142Z,82.90
2022-12-05T07:25:17.438Z,80.00
2022-12-05T07:27:49.508Z,55.10
2022-12-05T07:30:21.673Z,50.70
2022-12-05T07:32:54.023Z,51.30
2022-12-05T07:35:26.136Z,94.80
2022-12-05T07:37:58.920Z,133.10
2022-12-05T07:40:31.470Z,89.80
2022-12-05T07:43:03.588Z,61.00
2022-12-05T07:45:36.701Z,49.40
2022-12-05T07:48:09.228Z,66.70
2022-12-05T07:50:42.320Z,85.20
2022-12-05T07:53:14.385Z,55.00
2022-12-05T07:55:46.477Z,39.20
2022-12-05T07:58:18.624Z,47.10
2022-12-05T08:00:50.765Z,68.60
2022-12-05T08:03:22.823Z,40.70
2022-12-05T08:05:54.971Z,30.80
2022-12-05T08:08:27.139Z,34.70
2022-12-05T08:11:03.536Z,39.80
2022-12-05T08:13:36.315Z,31.00
2022-12-05T08:16:12.103Z,39.40
2022-12-05T08:18:46.525Z,40.70
2022-12-05T08:21:20.703Z,30.20
2022-12-05T08:23:53.241Z,29.60
2022-12-05T08:26:27.845Z,53.20
2022-12-05T08:29:02.124Z,39.40
2022-12-05T08:31:36.339Z,29.90
2022-12-05T08:34:08.558Z,35.70
2022-12-05T08:36:41.517Z,36.10
2022-12-05T08:39:17.298Z,35.60
2022-12-05T08:41:50.721Z,32.80
2022-12-05T08:44:22.840Z,49.20
2022-12-05T08:46:55.032Z,41.30
2022-12-05T08:49:28.378Z,28.60
2022-12-05T08:52:00.624Z,30.00
2022-12-05T08:54:32.919Z,36.00
2022-12-05T08:57:05.143Z,32.00
2022-12-05T08:59:37.359Z,31.40
2022-12-05T09:02:09.610Z,31.70
2022-12-05T09:04:42.162Z,39.40
2022-12-05T09:07:14.274Z,31.80
2022-12-05T09:09:46.640Z,31.90
2022-12-05T09:12:18.993Z,22.50
2022-12-05T09:14:51.650Z,23.30
2022-12-05T09:17:24.636Z,37.70
2022-12-05T09:19:56.828Z,28.20
2022-12-05T09:22:28.947Z,40.80
2022-12-05T09:25:01.755Z,32.60
2022-12-05T09:27:33.870Z,27.00
2022-12-05T09:30:09.452Z,24.90
2022-12-05T09:32:42.845Z,26.20
2022-12-05T09:35:15.036Z,29.00
2022-12-05T09:37:47.203Z,28.40
2022-12-05T09:40:21.139Z,38.20
2022-12-05T09:43:05.593Z,37.70
2022-12-05T09:45:41.347Z,35.10
2022-12-05T09:48:17.431Z,48.20
2022-12-05T09:50:55.691Z,41.80
2022-12-05T09:53:31.830Z,56.10
2022-12-05T09:56:13.673Z,60.20
2022-12-05T09:58:48.606Z,44.10
2022-12-05T10:01:42.063Z,38.60
2022-12-05T10:04:28.710Z,39.40
2022-12-05T10:07:08.864Z,34.80
2022-12-05T10:09:55.041Z,37.10
2022-12-05T10:12:44.274Z,43.30
2022-12-05T10:15:21.437Z,33.50
2022-12-05T10:18:00.543Z,31.50
2022-12-05T10:20:37.603Z,37.00
2022-12-05T10:23:34.709Z,28.40
2022-12-05T10:26:14.552Z,25.90
2022-12-05T10:28:53.456Z,29.60
2022-12-05T10:31:30.730Z,30.10
2022-12-05T10:34:11.664Z,28.20
2022-12-05T10:36:45.653Z,25.90
2022-12-05T10:39:17.721Z,27.60
2022-12-05T10:41:49.938Z,24.40
2022-12-05T10:44:22.385Z,26.10
2022-12-05T10:46:54.569Z,21.60
2022-12-05T10:49:27.952Z,23.50
2022-12-05T10:52:01.784Z,26.40
2022-12-05T10:54:39.637Z,38.00
2022-12-05T10:57:24.604Z,39.90
2022-12-05T10:59:57.589Z,28.00
2022-12-05T11:02:33.419Z,29.10
2022-12-05T11:07:48.356Z,26.00
2022-12-05T11:10:27.411Z,26.80
2022-12-05T11:13:01.062Z,23.80
2022-12-05T11:15:33.972Z,26.00
2022-12-05T11:21:14.878Z,30.40
2022-12-05T11:23:47.090Z,37.60
2022-12-05T11:26:35.794Z,36.90
2022-12-05T11:29:32.077Z,42.60
2022-12-05T11:32:05.453Z,55.70
2022-12-05T11:34:43.864Z,41.00
2022-12-05T11:37:21.589Z,46.10
2022-12-05T11:39:54.389Z,49.90
2022-12-05T11:42:37.600Z,55.20
2022-12-05T11:45:31.248Z,44.70
2022-12-05T11:48:18.771Z,34.90
2022-12-05T11:51:03.126Z,40.00
2022-12-05T11:53:52.575Z,40.80
2022-12-05T11:56:38.471Z,40.20
2022-12-05T11:59:30.908Z,36.50
2022-12-05T12:02:16.456Z,42.80
2022-12-05T12:04:53.907Z,56.40
2022-12-05T12:07:37.987Z,49.50
2022-12-05T12:10:19.747Z,44.10
2022-12-05T12:13:06.635Z,45.90
2022-12-05T12:15:52.424Z,41.20
2022-12-05T12:18:49.453Z,48.70
2022-12-05T12:21:26.866Z,58.20
2022-12-05T12:24:12.782Z,49.80
2022-12-05T12:26:58.299Z,44.20
2022-12-05T12:29:44.510Z,48.30
2022-12-05T12:32:31.582Z,49.00
2022-12-05T12:35:19.081Z,42.80
2022-12-05T12:38:04.690Z,47.40
2022-12-05T12:40:47.662Z,37.80
2022-12-05T12:43:53.249Z,43.70
2022-12-05T12:46:37.862Z,40.90
2022-12-05T12:49:31.597Z,48.10
2022-12-05T12:52:06.606Z,65.10
2022-12-05T12:57:56.152Z,70.70
2022-12-05T13:00:38.860Z,49.50
2022-12-05T13:03:18.255Z,43.50
2022-12-05T13:05:55.233Z,49.90
2022-12-05T13:08:35.188Z,50.60
2022-12-05T13:11:12.684Z,43.10
2022-12-05T13:13:48.760Z,48.10
2022-12-05T13:16:28.086Z,53.60
2022-12-05T13:19:01.448Z,43.50
2022-12-05T13:21:34.258Z,45.10
2022-12-05T13:24:08.524Z,65.20
2022-12-05T13:26:49.681Z,48.00
2022-12-05T13:29:33.826Z,60.70
2022-12-05T13:32:07.175Z,72.40
2022-12-05T13:34:51.681Z,77.40
2022-12-05T13:37:44.968Z,54.80
2022-12-05T13:40:47.911Z,53.80
2022-12-05T13:43:23.258Z,40.90
2022-12-05T13:46:14.187Z,46.90
2022-12-05T13:48:50.116Z,51.60
2022-12-05T13:51:32.088Z,43.20
2022-12-05T13:54:12.556Z,58.90
2022-12-05T13:56:54.270Z,46.50
2022-12-05T14:00:06.045Z,50.30
2022-12-05T14:02:55.075Z,45.90
2022-12-05T14:05:41.841Z,50.40
2022-12-05T14:08:47.902Z,52.70
2022-12-05T14:11:19.845Z,65.60
2022-12-05T14:13:51.936Z,76.60
2022-12-05T14:16:45.222Z,59.80
2022-12-05T14:19:48.826Z,46.50
2022-12-05T14:22:43.728Z,44.20
2022-12-05T14:25:30.769Z,70.60
2022-12-05T14:28:16.940Z,86.50
2022-12-05T14:31:03.110Z,56.40
2022-12-05T14:33:35.619Z,47.10
2022-12-05T14:36:17.126Z,53.40
2022-12-05T14:38:49.140Z,67.50
2022-12-05T14:41:36.345Z,55.30
2022-12-05T14:44:20.748Z,78.00
2022-12-05T14:46:52.722Z,87.20
2022-12-05T14:50:13.897Z,128.30
2022-12-05T14:52:47.218Z,86.90
2022-12-05T14:55:25.078Z,60.10
2022-12-05T14:57:59.567Z,73.10
2022-12-05T15:00:31.889Z,53.20
2022-12-05T15:03:05.978Z,65.00
2022-12-05T15:05:40.233Z,72.40
2022-12-05T15:08:17.018Z,59.70
2022-12-05T15:10:52.722Z,80.50
2022-12-05T15:13:28.678Z,73.90
2022-12-05T15:16:07.185Z,61.80
2022-12-05T15:18:44.376Z,64.30
2022-12-05T15:21:27.787Z,95.40
2022-12-05T15:24:01.806Z,81.30
2022-12-05T15:26:49.157Z,89.00
2022-12-05T15:29:29.279Z,67.20
2022-12-05T15:32:03.444Z,106.30
2022-12-05T15:34:42.037Z,74.20
2022-12-05T15:37:18.200Z,71.80
2022-12-05T15:39:57.333Z,120.10
2022-12-05T15:42:32.271Z,247.60
2022-12-05T15:45:22.198Z,118.40
2022-12-05T15:47:56.925Z,138.90
2022-12-05T15:50:35.232Z,89.90
2022-12-05T15:53:14.729Z,84.70
2022-12-05T15:55:51.866Z,79.60
2022-12-05T15:58:28.588Z,80.10
2022-12-05T16:01:06.871Z,124.80
2022-12-05T16:03:46.646Z,159.00
2022-12-05T16:06:23.576Z,76.40
2022-12-05T16:08:56.717Z,70.00
2022-12-05T16:11:28.912Z,55.40
2022-12-05T16:14:04.420Z,63.10
2022-12-05T16:16:39.837Z,108.20
2022-12-05T16:19:22.420Z,182.00
2022-12-05T16:22:08.642Z,87.90
2022-12-05T16:24:44.670Z,95.40
2022-12-05T16:27:19.427Z,75.70
2022-12-05T16:30:11.127Z,120.30
2022-12-05T16:32:44.957Z,164.60
2022-12-05T16:35:33.896Z,363.40
2022-12-05T16:38:14.652Z,106.30
2022-12-05T16:40:56.971Z,85.20
2022-12-05T16:43:46.828Z,54.80
2022-12-05T16:46:56.094Z,91.70
2022-12-05T16:49:45.613Z,80.10
2022-12-05T16:52:19.015Z,63.80
2022-12-05T16:54:52.359Z,74.90
2022-12-05T16:57:24.577Z,57.40
2022-12-05T16:59:58.077Z,102.10
2022-12-05T17:02:30.037Z,103.90
2022-12-05T17:05:08.073Z,90.80
2022-12-05T17:07:40.018Z,87.90
2022-12-05T17:10:12.685Z,95.80
2022-12-05T17:12:47.772Z,94.50
2022-12-05T17:15:21.878Z,97.40
2022-12-05T17:17:54.034Z,114.80
2022-12-05T17:20:25.970Z,83.00
2022-12-05T17:22:57.887Z,76.70
2022-12-05T17:25:36.428Z,67.70
2022-12-05T17:28:08.364Z,74.30
2022-12-05T17:30:40.892Z,76.30
2022-12-05T17:33:15.209Z,70.90
2022-12-05T17:35:47.281Z,71.60
2022-12-05T17:38:19.263Z,65.30
2022-12-05T17:40:51.178Z,71.80
2022-12-05T17:43:25.487Z,83.40
2022-12-05T17:46:00.482Z,68.10
2022-12-05T17:48:32.449Z,98.70
2022-12-05T17:51:06.734Z,131.10
2022-12-05T17:53:39.060Z,160.40
2022-12-05T17:56:11.436Z,231.90
2022-12-05T17:58:43.464Z,155.80
2022-12-05T18:01:18.771Z,144.70
2022-12-05T18:03:51.571Z,239.10
2022-12-05T18:06:23.533Z,182.10
2022-12-05T18:08:55.625Z,135.80
2022-12-05T18:11:27.591Z,118.00
2022-12-05T18:14:00.204Z,192.30
2022-12-05T18:16:32.297Z,222.90
2022-12-05T18:19:04.272Z,155.20
2022-12-05T18:21:36.292Z,154.20
2022-12-05T18:24:09.249Z,304.30
2022-12-05T18:26:41.503Z,236.50
2022-12-05T18:29:13.560Z,295.50
2022-12-05T18:31:45.540Z,196.70
2022-12-05T18:34:17.919Z,165.80
2022-12-05T18:36:49.871Z,128.70
2022-12-05T18:39:21.927Z,139.00
2022-12-05T18:41:54.454Z,148.50
2022-12-05T18:44:26.596Z,133.80
2022-12-05T18:46:58.527Z,266.50
2022-12-05T18:49:30.807Z,313.80
2022-12-05T18:52:03.126Z,197.40
2022-12-05T18:54:35.216Z,396.70
2022-12-05T18:57:07.234Z,207.00
2022-12-05T18:59:39.246Z,153.30
2022-12-05T19:02:12.065Z,144.00
2022-12-05T19:04:44.480Z,186.20
2022-12-05T19:07:16.468Z,172.20
2022-12-05T19:09:49.020Z,147.80
2022-12-05T19:12:21.112Z,159.00
2022-12-05T19:14:53.080Z,115.70
2022-12-05T19:17:25.197Z,104.60
2022-12-05T19:19:58.746Z,122.80
2022-12-05T19:22:31.484Z,113.60
2022-12-05T19:25:03.616Z,193.00
2022-12-05T19:27:35.531Z,128.00
2022-12-05T19:30:10.889Z,100.10
2022-12-05T19:32:42.944Z,94.80
2022-12-05T19:35:15.386Z,107.90
2022-12-05T19:37:47.300Z,97.70
2022-12-05T19:40:19.468Z,90.30
2022-12-05T19:42:51.379Z,84.20
2022-12-05T19:45:23.342Z,86.70
2022-12-05T19:47:55.254Z,85.70
2022-12-05T19:50:28.627Z,86.80
2022-12-05T19:53:01.076Z,100.30
2022-12-05T19:55:33.064Z,117.90
2022-12-05T19:58:04.900Z,131.20
2022-12-05T20:00:36.814Z,116.50
2022-12-05T20:03:12.136Z,122.70
2022-12-05T20:05:44.408Z,97.30
2022-12-05T20:08:16.395Z,81.60
2022-12-05T20:10:50.020Z,90.50
2022-12-05T20:13:45.933Z,80.50
2022-12-05T20:16:17.161Z,75.50
2022-12-05T20:18:49.945Z,72.10
2022-12-05T20:21:23.434Z,88.30
2022-12-05T20:23:55.817Z,79.00
2022-12-05T20:26:29.650Z,72.30
2022-12-05T20:29:02.765Z,78.30
2022-12-05T20:31:36.776Z,82.20
2022-12-05T20:34:10.662Z,90.90
2022-12-05T20:36:43.136Z,91.80
2022-12-05T20:39:17.094Z,81.50
2022-12-05T20:41:50.167Z,105.30
2022-12-05T20:44:22.514Z,86.20
2022-12-05T20:46:54.829Z,89.20
2022-12-05T20:49:27.049Z,88.40
2022-12-05T20:51:58.961Z,83.10
2022-12-05T20:54:30.925Z,92.60
2022-12-05T20:57:03.297Z,96.30
2022-12-05T20:59:35.340Z,92.10
2022-12-05T21:02:07.784Z,104.70
2022-12-05T21:04:41.139Z,89.20
2022-12-05T21:07:13.049Z,100.70
2022-12-05T21:09:44.931Z,86.70
2022-12-05T21:12:16.870Z,80.50
2022-12-05T21:14:48.759Z,83.60
2022-12-05T21:17:20.695Z,149.70
2022-12-05T21:19:52.633Z,124.70
2022-12-05T21:22:24.697Z,113.50
2022-12-05T21:24:56.638Z,113.70
2022-12-05T21:27:28.752Z,92.80
2022-12-05T21:30:00.954Z,109.40
2022-12-05T21:32:33.242Z,110.00
2022-12-05T21:35:06.037Z,159.70
2022-12-05T21:37:38.680Z,229.50
2022-12-05T21:40:12.566Z,118.90
2022-12-05T21:42:44.988Z,107.40
2022-12-05T21:45:17.181Z,139.80
2022-12-05T21:47:49.118Z,181.60
2022-12-05T21:50:21.107Z,167.30
2022-12-05T21:52:53.097Z,135.10
2022-12-05T21:55:25.137Z,168.20
2022-12-05T21:57:57.666Z,104.00
2022-12-05T22:00:29.551Z,266.10
2022-12-05T22:03:01.643Z,198.00
2022-12-05T22:05:34.373Z,252.40
2022-12-05T22:08:06.974Z,199.50
2022-12-05T22:10:39.171Z,265.80
2022-12-05T22:13:11.263Z,203.60
2022-12-05T22:15:43.291Z,94.40
2022-12-05T22:18:15.271Z,133.60
2022-12-05T22:20:47.231Z,95.70
2022-12-05T22:23:19.475Z,135.30
2022-12-05T22:25:59.579Z,182.80
2022-12-05T22:28:32.462Z,209.00
2022-12-05T22:31:06.247Z,150.00
2022-12-05T22:33:39.212Z,169.80
2022-12-05T22:36:13.935Z,133.10
2022-12-05T22:38:48.154Z,212.80
2022-12-05T22:43:57.788Z,137.10
2022-12-05T22:46:30.535Z,172.80
2022-12-05T22:49:04.122Z,263.80
2022-12-05T22:51:36.337Z,300.60
2022-12-05T22:54:08.791Z,221.40
2022-12-05T22:56:41.136Z,219.50
2022-12-05T22:59:14.927Z,225.90
2022-12-05T23:01:47.468Z,355.60
2022-12-05T23:04:20.349Z,197.40
2022-12-05T23:06:52.522Z,275.00
2022-12-05T23:09:25.231Z,183.60
2022-12-05T23:11:57.144Z,225.70
2022-12-05T23:14:29.079Z,145.90
2022-12-05T23:17:01.094Z,182.80
2022-12-05T23:19:32.979Z,169.40
2022-12-05T23:22:05.250Z,231.80
2022-12-05T23:24:37.341Z,145.20
2022-12-05T23:27:09.330Z,149.80
2022-12-05T23:29:42.705Z,142.70
2022-12-05T23:32:15.147Z,93.50
2022-12-05T23:34:47.271Z,126.10
2022-12-05T23:37:19.286Z,115.90
2022-12-05T23:39:51.297Z,105.40
2022-12-05T23:42:23.235Z,144.40
2022-12-05T23:44:55.484Z,252.20
2022-12-05T23:47:27.622Z,172.50
2022-12-05T23:49:59.772Z,152.90
2022-12-05T23:52:31.832Z,105.40
2022-12-05T23:55:03.901Z,129.20
2022-12-05T23:57:36.156Z,96.70
